createdAt,value
2018-10-18T00:01:49.843Z,60.37
2018-10-18T00:06:42.388Z,56.83
2018-10-18T00:11:35.013Z,67.47
2018-10-18T00:16:27.897Z,61.20
2018-10-18T00:21:20.513Z,55.63
2018-10-18T00:26:13.247Z,60.20
2018-10-18T00:31:05.851Z,58.00
2018-10-18T00:35:58.497Z,56.37
2018-10-18T00:40:51.069Z,58.50
2018-10-18T00:45:43.895Z,62.00
2018-10-18T00:50:36.558Z,64.87
2018-10-18T00:55:29.173Z,65.57
2018-10-18T01:00:21.787Z,60.90
2018-10-18T01:05:14.527Z,62.70
2018-10-18T01:10:07.150Z,60.67
2018-10-18T01:14:59.804Z,67.53
2018-10-18T01:19:52.649Z,72.13
2018-10-18T01:24:45.283Z,69.87
2018-10-18T01:29:37.981Z,65.27
2018-10-18T01:34:30.612Z,64.13
2018-10-18T01:39:23.281Z,67.60
2018-10-18T01:44:15.994Z,65.47
2018-10-18T01:49:08.650Z,63.33
2018-10-18T01:54:01.277Z,61.93
2018-10-18T01:58:53.883Z,62.33
2018-10-18T02:03:46.547Z,59.87
2018-10-18T02:08:39.174Z,60.27
2018-10-18T02:13:31.823Z,63.70
2018-10-18T02:18:24.493Z,58.60
2018-10-18T02:23:17.092Z,58.60
2018-10-18T02:28:09.723Z,62.87
2018-10-18T02:33:02.343Z,59.93
2018-10-18T02:37:54.970Z,60.40
2018-10-18T02:42:47.606Z,61.63
2018-10-18T02:47:40.204Z,59.87
2018-10-18T02:52:32.805Z,60.27
2018-10-18T02:57:25.480Z,57.47
2018-10-18T03:02:18.142Z,61.13
2018-10-18T03:07:10.807Z,65.40
2018-10-18T03:12:03.841Z,63.77
2018-10-18T03:16:56.398Z,68.90
2018-10-18T03:21:49.055Z,71.90
2018-10-18T03:26:41.718Z,65.47
2018-10-18T03:31:34.380Z,71.97
2018-10-18T03:36:27.056Z,75.73
2018-10-18T03:41:19.738Z,74.37
2018-10-18T03:46:12.417Z,75.10
2018-10-18T03:51:05.170Z,73.50
2018-10-18T03:55:57.741Z,73.40
2018-10-18T04:00:50.379Z,72.53
2018-10-18T04:05:43.065Z,77.93
2018-10-18T04:10:35.856Z,66.87
2018-10-18T04:15:28.482Z,69.20
2018-10-18T04:20:21.098Z,73.90
2018-10-18T04:25:13.775Z,74.33
2018-10-18T04:30:06.918Z,62.30
2018-10-18T04:34:59.457Z,74.10
2018-10-18T04:39:52.101Z,73.67
2018-10-18T04:44:44.870Z,72.67
2018-10-18T04:49:37.687Z,68.03
2018-10-18T04:54:30.346Z,68.60
2018-10-18T04:59:22.960Z,72.63
2018-10-18T05:04:16.568Z,81.50
2018-10-18T05:09:09.408Z,65.87
2018-10-18T05:14:01.993Z,75.03
2018-10-18T05:18:54.648Z,80.73
2018-10-18T05:23:47.435Z,86.17
2018-10-18T05:28:40.155Z,68.77
2018-10-18T05:33:32.857Z,79.00
2018-10-18T05:38:25.630Z,75.87
2018-10-18T05:43:18.357Z,82.00
2018-10-18T05:48:10.956Z,69.30
2018-10-18T05:53:03.660Z,65.20
2018-10-18T05:57:56.350Z,72.73
2018-10-18T06:02:49.786Z,76.27
2018-10-18T06:07:42.977Z,72.83
2018-10-18T06:12:35.623Z,67.53
2018-10-18T06:17:28.338Z,61.73
2018-10-18T06:27:24.909Z,74.17
2018-10-18T06:32:17.623Z,89.70
2018-10-18T06:37:10.277Z,82.97
2018-10-18T06:42:02.881Z,88.73
2018-10-18T06:46:55.571Z,81.67
2018-10-18T06:51:48.328Z,71.40
2018-10-18T06:56:40.941Z,85.00
2018-10-18T07:01:33.510Z,81.60
2018-10-18T07:06:26.136Z,112.13
2018-10-18T07:11:18.729Z,65.67
2018-10-18T07:16:11.433Z,65.20
2018-10-18T07:21:04.658Z,69.33
2018-10-18T07:25:57.275Z,72.67
2018-10-18T07:30:50.008Z,67.77
2018-10-18T07:35:42.650Z,68.60
2018-10-18T07:40:35.243Z,70.13
2018-10-18T07:45:27.867Z,81.10
2018-10-18T07:50:20.458Z,70.87
2018-10-18T07:55:13.074Z,94.50
2018-10-18T08:00:08.760Z,82.00
2018-10-18T08:05:01.275Z,83.53
2018-10-18T08:09:53.937Z,83.97
2018-10-18T08:14:46.522Z,88.93
2018-10-18T08:19:39.154Z,80.00
2018-10-18T08:24:31.846Z,82.57
2018-10-18T08:29:24.498Z,81.43
2018-10-18T08:34:17.123Z,84.63
2018-10-18T08:39:10.502Z,86.33
2018-10-18T08:44:03.350Z,84.23
2018-10-18T08:48:55.977Z,78.43
2018-10-18T08:53:48.634Z,85.27
2018-10-18T08:58:41.234Z,80.70
2018-10-18T09:03:33.880Z,68.60
2018-10-18T09:08:26.529Z,80.60
2018-10-18T09:13:19.275Z,76.80
2018-10-18T09:18:11.829Z,76.90
2018-10-18T09:23:05.048Z,71.27
2018-10-18T09:27:57.706Z,71.77
2018-10-18T09:32:50.262Z,71.03
2018-10-18T09:37:42.886Z,72.03
2018-10-18T09:42:35.454Z,65.47
2018-10-18T09:47:28.098Z,68.17
2018-10-18T09:52:20.721Z,69.33
2018-10-18T09:57:13.362Z,66.90
2018-10-18T10:02:11.797Z,56.90
2018-10-18T10:07:04.736Z,63.23
2018-10-18T10:11:57.313Z,59.87
2018-10-18T10:16:49.894Z,63.70
2018-10-18T10:21:42.541Z,66.00
2018-10-18T10:26:35.086Z,62.83
2018-10-18T10:31:28.003Z,63.17
2018-10-18T10:36:20.617Z,56.53
2018-10-18T10:41:13.228Z,59.03
2018-10-18T10:46:05.831Z,53.20
2018-10-18T10:50:58.482Z,51.73
2018-10-18T10:55:51.294Z,49.03
2018-10-18T11:01:22.475Z,51.90
2018-10-18T11:06:15.216Z,48.50
2018-10-18T11:11:08.053Z,44.23
2018-10-18T11:16:01.654Z,43.13
2018-10-18T11:20:54.266Z,45.83
2018-10-18T11:25:46.850Z,44.63
2018-10-18T11:30:39.449Z,49.33
2018-10-18T11:35:32.020Z,50.67
2018-10-18T11:40:24.671Z,46.67
2018-10-18T11:45:17.348Z,47.63
2018-10-18T11:50:10.027Z,50.33
2018-10-18T11:55:02.673Z,45.73
2018-10-18T11:59:55.321Z,44.03
2018-10-18T12:04:47.925Z,49.90
2018-10-18T12:09:40.676Z,50.20
2018-10-18T12:14:33.262Z,45.90
2018-10-18T12:19:25.890Z,47.03
2018-10-18T12:24:18.478Z,49.07
2018-10-18T12:29:11.258Z,56.37
2018-10-18T12:34:04.156Z,49.70
2018-10-18T12:38:56.713Z,49.87
2018-10-18T12:43:49.287Z,50.27
2018-10-18T12:48:42.106Z,50.67
2018-10-18T12:53:34.742Z,53.37
2018-10-18T12:58:27.422Z,55.30
2018-10-18T13:03:20.069Z,57.73
2018-10-18T13:08:12.811Z,56.47
2018-10-18T13:13:05.397Z,57.53
2018-10-18T13:17:58.169Z,57.93
2018-10-18T13:22:51.027Z,64.23
2018-10-18T13:27:43.757Z,53.87
2018-10-18T13:32:36.463Z,54.67
2018-10-18T13:37:29.246Z,56.07
2018-10-18T13:42:21.934Z,54.70
2018-10-18T13:47:14.902Z,58.60
2018-10-18T13:52:07.562Z,52.33
2018-10-18T13:57:00.158Z,54.30
2018-10-18T14:01:52.818Z,52.97
2018-10-18T14:06:45.624Z,57.30
2018-10-18T14:11:38.343Z,57.67
2018-10-18T14:16:30.953Z,53.20
2018-10-18T14:21:23.656Z,59.43
2018-10-18T14:26:16.684Z,52.33
2018-10-18T14:31:09.218Z,55.10
2018-10-18T14:36:01.846Z,54.77
2018-10-18T14:40:54.592Z,54.70
2018-10-18T14:45:47.439Z,54.13
2018-10-18T14:50:40.195Z,48.90
2018-10-18T14:55:33.081Z,51.23
2018-10-18T15:00:25.888Z,51.23
2018-10-18T15:05:18.633Z,50.97
2018-10-18T15:10:12.309Z,53.53
2018-10-18T15:15:06.571Z,52.40
2018-10-18T15:19:59.165Z,50.80
2018-10-18T15:24:51.757Z,53.77
2018-10-18T15:29:44.434Z,48.67
2018-10-18T15:34:37.113Z,49.80
2018-10-18T15:39:29.807Z,51.60
2018-10-18T15:44:22.693Z,48.43
2018-10-18T15:49:15.181Z,48.23
2018-10-18T15:54:07.877Z,53.60
2018-10-18T15:59:00.462Z,55.83
2018-10-18T16:03:53.055Z,53.63
2018-10-18T16:08:45.625Z,58.97
2018-10-18T16:13:38.313Z,61.23
2018-10-18T16:18:30.848Z,65.10
2018-10-18T16:23:23.500Z,60.97
2018-10-18T16:28:16.084Z,65.47
2018-10-18T16:33:08.934Z,60.57
2018-10-18T16:38:01.530Z,60.60
2018-10-18T16:42:54.098Z,56.40
2018-10-18T16:47:46.725Z,57.13
2018-10-18T16:52:39.633Z,55.13
2018-10-18T16:57:32.496Z,45.83
2018-10-18T17:02:25.015Z,35.00
2018-10-18T17:07:17.598Z,34.70
2018-10-18T17:12:10.372Z,29.57
2018-10-18T17:17:02.995Z,28.73
2018-10-18T17:21:55.508Z,26.83
2018-10-18T17:26:48.139Z,29.03
2018-10-18T17:31:40.637Z,31.93
2018-10-18T17:36:33.194Z,35.00
2018-10-18T17:41:26.110Z,36.77
2018-10-18T17:46:18.776Z,39.00
2018-10-18T17:51:11.454Z,38.20
2018-10-18T17:56:04.527Z,37.13
2018-10-18T18:00:57.142Z,40.40
2018-10-18T18:05:50.402Z,33.77
2018-10-18T18:10:43.173Z,39.30
2018-10-18T18:15:35.760Z,38.00
2018-10-18T18:20:28.401Z,33.07
2018-10-18T18:25:20.976Z,33.00
2018-10-18T18:30:14.641Z,30.90
2018-10-18T18:35:07.475Z,33.10
2018-10-18T18:40:00.130Z,27.77
2018-10-18T18:44:58.515Z,30.57
2018-10-18T18:49:51.247Z,30.57
2018-10-18T18:54:44.017Z,26.80
2018-10-18T18:59:36.609Z,23.73
2018-10-18T19:04:29.212Z,20.73
2018-10-18T19:09:21.881Z,21.83
2018-10-18T19:14:14.606Z,20.97
2018-10-18T19:19:07.277Z,17.87
2018-10-18T19:23:59.968Z,18.80
2018-10-18T19:28:52.579Z,15.60
2018-10-18T19:33:45.341Z,15.53
2018-10-18T19:38:38.148Z,14.37
2018-10-18T19:43:30.763Z,16.37
2018-10-18T19:48:23.450Z,18.40
2018-10-18T19:53:17.247Z,15.93
2018-10-18T19:58:10.328Z,16.57
2018-10-18T20:03:03.079Z,13.83
2018-10-18T20:07:55.847Z,15.03
2018-10-18T20:12:48.489Z,14.97
2018-10-18T20:17:41.197Z,21.73
2018-10-18T20:22:33.748Z,15.87
2018-10-18T20:27:26.654Z,16.77
2018-10-18T20:32:19.434Z,17.33
2018-10-18T20:37:12.067Z,16.67
2018-10-18T20:42:05.048Z,15.67
2018-10-18T20:46:57.982Z,13.00
2018-10-18T20:51:50.484Z,17.37
2018-10-18T20:56:43.097Z,14.83
2018-10-18T21:01:35.727Z,12.30
2018-10-18T21:06:28.641Z,13.73
2018-10-18T21:11:21.216Z,17.03
2018-10-18T21:16:13.817Z,13.90
2018-10-18T21:21:06.479Z,13.40
2018-10-18T21:25:59.265Z,11.30
2018-10-18T21:30:51.869Z,8.80
2018-10-18T21:35:44.466Z,11.60
2018-10-18T21:40:37.080Z,10.90
2018-10-18T21:45:29.845Z,6.83
2018-10-18T21:50:22.502Z,9.20
2018-10-18T21:55:15.130Z,8.93
2018-10-18T22:00:13.999Z,9.20
2018-10-18T22:05:06.720Z,6.03
2018-10-18T22:09:59.309Z,7.37
2018-10-18T22:14:51.963Z,9.43
2018-10-18T22:19:44.766Z,8.27
2018-10-18T22:24:37.413Z,8.27
2018-10-18T22:29:30.035Z,8.70
2018-10-18T22:34:22.718Z,10.83
2018-10-18T22:39:15.278Z,9.03
2018-10-18T22:44:08.439Z,11.07
2018-10-18T22:49:01.080Z,8.27
2018-10-18T22:53:53.693Z,8.57
2018-10-18T22:58:46.380Z,6.73
2018-10-18T23:03:39.014Z,12.63
2018-10-18T23:08:31.732Z,11.10
2018-10-18T23:13:24.507Z,9.53
2018-10-18T23:18:17.159Z,7.87
2018-10-18T23:23:10.570Z,13.03
2018-10-18T23:28:03.237Z,10.43
2018-10-18T23:32:55.886Z,13.63
2018-10-18T23:37:48.537Z,7.73
2018-10-18T23:42:41.171Z,11.90
2018-10-18T23:47:33.758Z,9.23
2018-10-18T23:52:26.351Z,12.83
2018-10-18T23:57:19.026Z,8.93
